createdAt,value
2018-06-27T00:00:18.150Z,23.1
2018-06-27T00:01:08.450Z,23.1
2018-06-27T00:01:58.915Z,23.1
2018-06-27T00:02:49.155Z,23.1
2018-06-27T00:03:39.244Z,23.1
2018-06-27T00:04:28.122Z,23
2018-06-27T00:05:19.046Z,23.1
2018-06-27T00:06:09.111Z,23.1
2018-06-27T00:06:59.171Z,23
2018-06-27T00:07:49.484Z,23
2018-06-27T00:08:38.761Z,23
2018-06-27T00:09:29.311Z,23
2018-06-27T00:10:19.153Z,23
2018-06-27T00:11:09.436Z,23
2018-06-27T00:11:58.411Z,23
2018-06-27T00:12:48.784Z,23
2018-06-27T00:13:38.845Z,23
2018-06-27T00:14:29.486Z,23
2018-06-27T00:15:19.569Z,23
2018-06-27T00:16:10.151Z,23
2018-06-27T00:16:59.666Z,23
2018-06-27T00:17:49.410Z,23
2018-06-27T00:18:39.539Z,23
2018-06-27T00:19:31.089Z,23
2018-06-27T00:20:20.227Z,23
2018-06-27T00:21:09.735Z,23
2018-06-27T00:22:00.590Z,23
2018-06-27T00:22:50.089Z,23
2018-06-27T00:23:40.143Z,23
2018-06-27T00:24:30.738Z,23
2018-06-27T00:25:20.510Z,23
2018-06-27T00:26:10.149Z,23
2018-06-27T00:27:00.382Z,23
2018-06-27T00:27:51.033Z,23
2018-06-27T00:28:40.466Z,23
2018-06-27T00:29:31.142Z,23
2018-06-27T00:30:20.627Z,23
2018-06-27T00:31:10.760Z,23
2018-06-27T00:32:01.290Z,23
2018-06-27T00:32:50.835Z,23
2018-06-27T00:33:41.467Z,23
2018-06-27T00:34:31.245Z,23
2018-06-27T00:35:21.306Z,23
2018-06-27T00:36:10.509Z,23.1
2018-06-27T00:37:01.659Z,23
2018-06-27T00:37:51.488Z,23.1
2018-06-27T00:38:41.257Z,23
2018-06-27T00:39:31.319Z,23.1
2018-06-27T00:40:21.938Z,23.1
2018-06-27T00:41:10.872Z,23.1
2018-06-27T00:42:01.563Z,23.1
2018-06-27T00:42:50.732Z,23.1
2018-06-27T00:43:41.629Z,23.1
2018-06-27T00:44:31.438Z,23.1
2018-06-27T00:45:21.776Z,23.1
2018-06-27T00:46:12.421Z,23.1
2018-06-27T00:47:01.886Z,23.1
2018-06-27T00:47:52.235Z,23.1
2018-06-27T00:48:42.059Z,23.1
2018-06-27T00:49:32.346Z,23.1
2018-06-27T00:50:22.729Z,23.1
2018-06-27T00:51:12.465Z,23.1
2018-06-27T00:52:02.344Z,23.1
2018-06-27T00:52:51.767Z,23.1
2018-06-27T00:53:42.025Z,23.1
2018-06-27T00:54:32.968Z,23.1
2018-06-27T00:55:22.286Z,23.1
2018-06-27T00:56:13.150Z,23.1
2018-06-27T00:57:03.239Z,23.1
2018-06-27T00:57:52.402Z,23.1
2018-06-27T00:58:43.322Z,23.1
2018-06-27T00:59:33.115Z,23.1
2018-06-27T01:00:23.175Z,23.1
2018-06-27T01:01:12.957Z,23.1
2018-06-27T01:02:02.480Z,23.1
2018-06-27T01:02:53.643Z,23.1
2018-06-27T01:03:43.413Z,23.1
2018-06-27T01:04:33.746Z,23.1
2018-06-27T01:05:23.819Z,23.1
2018-06-27T01:06:13.614Z,23.1
2018-06-27T01:07:03.951Z,23.1
2018-06-27T01:07:53.703Z,23.1
2018-06-27T01:08:44.099Z,23.1
2018-06-27T01:09:33.385Z,23.1
2018-06-27T01:10:24.171Z,23.1
2018-06-27T01:11:13.729Z,23.1
2018-06-27T01:12:04.350Z,23.1
2018-06-27T01:12:53.572Z,23.1
2018-06-27T01:13:44.448Z,23.1
2018-06-27T01:14:34.248Z,23.1
2018-06-27T01:15:24.611Z,23.1
2018-06-27T01:16:14.089Z,23.1
2018-06-27T01:17:03.881Z,23.2
2018-06-27T01:17:54.791Z,23.2
2018-06-27T01:18:44.313Z,23.2
2018-06-27T01:19:34.888Z,23.1
2018-06-27T01:20:24.375Z,23.1
2018-06-27T01:21:13.911Z,23.1
2018-06-27T01:22:04.814Z,23.1
2018-06-27T01:22:54.021Z,23.2
2018-06-27T01:23:45.214Z,23.1
2018-06-27T01:24:34.436Z,23.2
2018-06-27T01:25:24.787Z,23.2
2018-06-27T01:26:15.145Z,23.2
2018-06-27T01:27:05.284Z,23.2
2018-06-27T01:27:55.276Z,23.2
2018-06-27T01:28:45.340Z,23.2
2018-06-27T01:29:35.421Z,23.2
2018-06-27T01:30:25.166Z,23.2
2018-06-27T01:31:15.549Z,23.2
2018-06-27T01:32:05.857Z,23.2
2018-06-27T01:32:55.690Z,23.2
2018-06-27T01:33:45.134Z,23.2
2018-06-27T01:34:35.452Z,23.2
2018-06-27T01:35:25.918Z,23.2
2018-06-27T01:36:16.143Z,23.2
2018-06-27T01:37:05.985Z,23.2
2018-06-27T01:37:56.059Z,23.2
2018-06-27T01:38:45.799Z,23.3
2018-06-27T01:39:35.030Z,23.2
2018-06-27T01:40:26.554Z,23.2
2018-06-27T01:41:16.563Z,23.2
2018-06-27T01:42:05.738Z,23.2
2018-06-27T01:42:56.437Z,23.2
2018-06-27T01:43:46.722Z,23.2
2018-06-27T01:44:36.221Z,23.2
2018-06-27T01:45:26.003Z,23.2
2018-06-27T01:46:15.842Z,23.2
2018-06-27T01:47:06.157Z,23.2
2018-06-27T01:47:55.930Z,23.2
2018-06-27T01:48:46.275Z,23.3
2018-06-27T01:49:36.607Z,23.3
2018-06-27T01:50:27.240Z,23.2
2018-06-27T01:51:16.152Z,23.3
2018-06-27T01:52:07.067Z,23.3
2018-06-27T01:52:56.848Z,23.2
2018-06-27T01:53:46.912Z,23.2
2018-06-27T01:54:37.280Z,23.3
2018-06-27T01:55:27.085Z,23.3
2018-06-27T01:56:16.830Z,23.3
2018-06-27T01:57:07.797Z,23.3
2018-06-27T01:57:57.555Z,23.3
2018-06-27T01:58:47.019Z,23.3
2018-06-27T01:59:37.982Z,23.3
2018-06-27T02:00:28.004Z,23.3
2018-06-27T02:01:18.098Z,23.3
2018-06-27T02:02:07.827Z,23.3
2018-06-27T02:02:57.356Z,23.3
2018-06-27T02:03:47.638Z,23.3
2018-06-27T02:04:38.056Z,23.3
2018-06-27T02:05:27.544Z,23.3
2018-06-27T02:06:18.186Z,23.3
2018-06-27T02:07:08.508Z,23.3
2018-06-27T02:07:57.980Z,23.3
2018-06-27T02:08:48.301Z,23.3
2018-06-27T02:09:38.661Z,23.3
2018-06-27T02:10:28.533Z,23.3
2018-06-27T02:11:18.283Z,23.4
2018-06-27T02:12:08.591Z,23.4
2018-06-27T02:12:58.153Z,23.4
2018-06-27T02:13:48.438Z,23.4
2018-06-27T02:14:39.084Z,23.4
2018-06-27T02:15:28.824Z,23.5
2018-06-27T02:16:18.640Z,23.6
2018-06-27T02:17:09.209Z,23.6
2018-06-27T02:17:59.122Z,23.6
2018-06-27T02:18:48.830Z,23.7
2018-06-27T02:19:39.431Z,23.7
2018-06-27T02:20:28.983Z,23.8
2018-06-27T02:21:19.536Z,23.8
2018-06-27T02:22:08.782Z,23.9
2018-06-27T02:22:59.178Z,23.9
2018-06-27T02:23:49.769Z,24
2018-06-27T02:24:39.529Z,24
2018-06-27T02:25:29.045Z,24.1
2018-06-27T02:26:19.082Z,24.2
2018-06-27T02:27:09.769Z,24.2
2018-06-27T02:27:59.827Z,24.3
2018-06-27T02:28:49.578Z,24.3
2018-06-27T02:29:38.536Z,24.4
2018-06-27T02:30:30.236Z,24.4
2018-06-27T02:31:20.353Z,24.5
2018-06-27T02:32:09.870Z,24.6
2018-06-27T02:33:00.203Z,24.6
2018-06-27T02:33:50.533Z,24.7
2018-06-27T02:34:40.368Z,24.8
2018-06-27T02:35:29.772Z,24.8
2018-06-27T02:36:20.134Z,24.9
2018-06-27T02:37:10.255Z,24.9
2018-06-27T02:38:00.561Z,25
2018-06-27T02:38:50.637Z,25.1
2018-06-27T02:39:40.983Z,25.1
2018-06-27T02:40:30.502Z,25.2
2018-06-27T02:41:21.077Z,25.3
2018-06-27T02:42:10.306Z,25.3
2018-06-27T02:43:01.222Z,25.4
2018-06-27T02:43:50.713Z,25.4
2018-06-27T02:44:40.790Z,25.6
2018-06-27T02:45:31.111Z,25.6
2018-06-27T02:46:21.194Z,25.7
2018-06-27T02:47:11.319Z,25.8
2018-06-27T02:48:01.034Z,25.9
2018-06-27T02:48:51.708Z,25.9
2018-06-27T02:49:41.103Z,26
2018-06-27T02:50:31.806Z,26.1
2018-06-27T02:51:21.327Z,26.1
2018-06-27T02:52:12.031Z,26.3
2018-06-27T02:53:01.425Z,26.3
2018-06-27T02:53:51.781Z,26.4
2018-06-27T02:54:41.827Z,26.5
2018-06-27T02:55:31.941Z,26.6
2018-06-27T02:56:21.158Z,26.7
2018-06-27T02:57:12.335Z,26.8
2018-06-27T02:58:02.113Z,26.8
2018-06-27T02:58:51.589Z,26.9
2018-06-27T02:59:42.196Z,27
2018-06-27T03:00:31.713Z,27.1
2018-06-27T03:01:21.517Z,27.2
2018-06-27T03:02:12.167Z,27.3
2018-06-27T03:03:02.489Z,27.3
2018-06-27T03:03:51.964Z,27.4
2018-06-27T03:04:42.299Z,27.5
2018-06-27T03:05:32.086Z,27.6
2018-06-27T03:06:23.047Z,27.6
2018-06-27T03:07:12.836Z,27.8
2018-06-27T03:08:52.632Z,27.9
2018-06-27T03:09:42.970Z,28
2018-06-27T03:10:32.764Z,28.1
2018-06-27T03:11:22.547Z,28.1
2018-06-27T03:12:12.889Z,28.3
2018-06-27T03:13:03.230Z,28.3
2018-06-27T03:13:53.272Z,28.4
2018-06-27T03:14:43.329Z,28.5
2018-06-27T03:15:33.440Z,28.6
2018-06-27T03:16:23.452Z,28.6
2018-06-27T03:17:13.519Z,28.8
2018-06-27T03:18:03.625Z,28.8
2018-06-27T03:18:53.930Z,28.9
2018-06-27T03:19:43.688Z,29
2018-06-27T03:20:34.270Z,29.1
2018-06-27T03:21:23.282Z,29.2
2018-06-27T03:22:13.927Z,29.3
2018-06-27T03:23:04.280Z,29.4
2018-06-27T03:23:53.706Z,29.4
2018-06-27T03:24:43.846Z,29.5
2018-06-27T03:25:34.335Z,29.6
2018-06-27T03:26:24.231Z,29.8
2018-06-27T03:27:13.725Z,29.8
2018-06-27T03:28:04.055Z,29.9
2018-06-27T03:28:54.732Z,29.9
2018-06-27T03:29:43.685Z,30
2018-06-27T03:30:35.066Z,30.1
2018-06-27T03:31:24.594Z,30.2
2018-06-27T03:32:14.134Z,30.3
2018-06-27T03:33:04.724Z,30.3
2018-06-27T03:33:55.092Z,30.4
2018-06-27T03:34:44.591Z,30.4
2018-06-27T03:35:34.356Z,30.6
2018-06-27T03:36:24.393Z,30.6
2018-06-27T03:37:15.280Z,30.6
2018-06-27T03:38:05.129Z,30.7
2018-06-27T03:38:54.855Z,30.7
2018-06-27T03:39:44.963Z,30.8
2018-06-27T03:40:35.027Z,30.8
2018-06-27T03:41:25.597Z,30.8
2018-06-27T03:42:15.700Z,30.8
2018-06-27T03:43:05.220Z,30.9
2018-06-27T03:43:55.535Z,30.9
2018-06-27T03:44:45.343Z,30.9
2018-06-27T03:45:35.397Z,30.9
2018-06-27T03:46:26.060Z,30.9
2018-06-27T03:47:15.491Z,30.9
2018-06-27T03:48:05.825Z,31
2018-06-27T03:48:56.178Z,31
2018-06-27T03:49:45.988Z,31
2018-06-27T03:50:36.063Z,31.1
2018-06-27T03:51:26.073Z,31.1
2018-06-27T03:52:16.448Z,31.1
2018-06-27T03:53:05.353Z,31.1
2018-06-27T03:53:56.294Z,31.1
2018-06-27T03:54:45.808Z,31.1
2018-06-27T03:55:35.546Z,31.1
2018-06-27T03:56:26.811Z,31.1
2018-06-27T03:57:16.879Z,31.1
2018-06-27T03:58:06.615Z,31.1
2018-06-27T03:58:56.591Z,31.1
2018-06-27T22:30:42.451Z,31.7
2018-06-27T22:31:47.484Z,31.7
2018-06-27T22:32:22.751Z,31.7
2018-06-27T22:33:12.938Z,31.7
2018-06-27T22:34:03.505Z,31.7
2018-06-27T22:34:52.606Z,31.7
2018-06-27T22:35:42.843Z,31.7
2018-06-27T22:36:33.021Z,31.7
2018-06-27T22:37:22.788Z,31.7
2018-06-27T22:38:13.316Z,31.7
2018-06-27T22:39:03.390Z,31.7
2018-06-27T22:39:53.734Z,31.7
2018-06-27T22:40:43.487Z,31.6
2018-06-27T22:41:34.270Z,31.6
2018-06-27T22:42:23.950Z,31.6
2018-06-27T22:43:13.711Z,31.6
2018-06-27T22:44:03.877Z,31.6
2018-06-27T22:44:54.051Z,31.6
2018-06-27T22:45:43.362Z,31.6
2018-06-27T22:46:33.955Z,31.6
2018-06-27T22:47:23.761Z,31.6
2018-06-27T22:48:28.157Z,31.6
2018-06-27T22:49:07.244Z,31.6
2018-06-27T22:49:58.330Z,31.6
2018-06-27T22:50:47.902Z,31.6
2018-06-27T22:51:38.039Z,31.6
2018-06-27T22:52:28.378Z,31.6
2018-06-27T22:53:17.573Z,31.6
2018-06-27T22:54:07.933Z,31.6
2018-06-27T22:54:58.222Z,31.6
2018-06-27T22:55:48.589Z,31.6
2018-06-27T22:56:39.580Z,31.6
2018-06-27T22:57:28.722Z,31.6
2018-06-27T22:58:18.786Z,31.6
2018-06-27T22:59:09.023Z,31.6
2018-06-27T22:59:59.174Z,31.5
2018-06-27T23:00:48.666Z,31.5
2018-06-27T23:01:38.996Z,31.6
2018-06-27T23:02:29.092Z,31.5
2018-06-27T23:03:18.845Z,31.5
2018-06-27T23:04:23.895Z,31.5
2018-06-27T23:04:58.983Z,31.5
2018-06-27T23:05:49.504Z,31.5
2018-06-27T23:06:39.137Z,31.5
2018-06-27T23:07:29.431Z,31.5
2018-06-27T23:08:19.217Z,31.5
2018-06-27T23:09:23.701Z,31.5
2018-06-27T23:09:59.128Z,31.5
2018-06-27T23:10:49.466Z,31.5
2018-06-27T23:11:38.951Z,31.4
2018-06-27T23:12:28.723Z,31.5
2018-06-27T23:13:19.653Z,31.4
2018-06-27T23:14:09.000Z,31.4
2018-06-27T23:14:59.688Z,31.4
2018-06-27T23:15:49.202Z,31.4
2018-06-27T23:16:39.828Z,31.4
2018-06-27T23:17:29.940Z,31.4
2018-06-27T23:18:20.468Z,31.4
2018-06-27T23:19:10.044Z,31.4
2018-06-27T23:20:00.096Z,31.4
2018-06-27T23:21:04.786Z,31.4
2018-06-27T23:21:40.498Z,31.4
2018-06-27T23:22:30.550Z,31.4
2018-06-27T23:23:20.441Z,31.4
2018-06-27T23:24:10.157Z,31.4
2018-06-27T23:25:00.531Z,31.4
2018-06-27T23:25:50.420Z,31.4
2018-06-27T23:26:41.084Z,31.4
2018-06-27T23:27:31.081Z,31.4
2018-06-27T23:28:20.723Z,31.4
2018-06-27T23:29:11.344Z,31.4
2018-06-27T23:30:01.221Z,31.4
